createdAt,value
2023-02-11T00:02:11.631Z,13.27
2023-02-11T00:06:19.590Z,12.03
2023-02-11T00:10:25.103Z,13.57
2023-02-11T00:14:30.633Z,13.10
2023-02-11T00:18:36.506Z,12.87
2023-02-11T00:22:41.983Z,13.70
2023-02-11T00:26:47.565Z,11.50
2023-02-11T00:30:58.365Z,11.73
2023-02-11T00:35:03.929Z,12.40
2023-02-11T00:39:09.865Z,14.97
2023-02-11T00:43:15.453Z,11.30
2023-02-11T00:47:20.944Z,13.17
2023-02-11T00:51:27.800Z,14.47
2023-02-11T00:55:33.539Z,12.60
2023-02-11T00:59:39.108Z,11.90
2023-02-11T01:03:44.613Z,12.17
2023-02-11T01:07:50.174Z,12.00
2023-02-11T01:11:55.634Z,12.77
2023-02-11T01:16:01.596Z,12.83
2023-02-11T01:20:12.258Z,10.67
2023-02-11T01:24:17.838Z,11.00
2023-02-11T01:28:28.571Z,12.43
2023-02-11T01:32:35.108Z,11.23
2023-02-11T01:36:41.213Z,11.30
2023-02-11T01:41:10.007Z,11.50
2023-02-11T01:45:47.118Z,11.47
2023-02-11T01:50:02.366Z,10.50
2023-02-11T01:54:29.469Z,10.87
2023-02-11T01:58:39.044Z,10.93
2023-02-11T02:03:10.018Z,11.57
2023-02-11T02:08:13.155Z,12.70
2023-02-11T02:12:18.936Z,11.77
2023-02-11T02:16:34.189Z,10.50
2023-02-11T02:20:51.671Z,11.53
2023-02-11T02:25:35.145Z,10.97
2023-02-11T02:30:11.608Z,9.37
2023-02-11T02:34:22.456Z,12.80
2023-02-11T02:38:48.957Z,11.27
2023-02-11T02:42:56.454Z,10.20
2023-02-11T02:47:01.972Z,9.87
2023-02-11T02:51:44.633Z,9.30
2023-02-11T02:55:55.204Z,10.40
2023-02-11T03:00:42.398Z,9.97
2023-02-11T03:05:38.507Z,10.60
2023-02-11T03:10:31.780Z,9.70
2023-02-11T03:14:38.893Z,10.17
2023-02-11T03:18:51.447Z,9.90
2023-02-11T03:23:19.168Z,9.50
2023-02-11T03:27:43.271Z,8.87
2023-02-11T03:32:20.042Z,9.63
2023-02-11T03:36:53.913Z,10.47
2023-02-11T03:41:01.480Z,9.90
2023-02-11T03:45:12.635Z,8.80
2023-02-11T03:49:22.296Z,11.00
2023-02-11T03:53:27.863Z,8.90
2023-02-11T03:57:34.706Z,10.50
2023-02-11T04:01:40.421Z,9.77
2023-02-11T04:05:46.037Z,10.73
2023-02-11T04:09:51.665Z,11.67
2023-02-11T04:13:57.197Z,9.90
2023-02-11T04:18:04.079Z,11.43
2023-02-11T04:22:09.998Z,10.40
2023-02-11T04:26:15.548Z,10.33
2023-02-11T04:30:21.221Z,10.37
2023-02-11T04:34:26.853Z,11.20
2023-02-11T04:38:32.479Z,9.87
2023-02-11T04:42:38.044Z,9.90
2023-02-11T04:46:43.614Z,9.97
2023-02-11T04:50:49.082Z,10.00
2023-02-11T04:55:01.200Z,10.60
2023-02-11T04:59:07.108Z,9.07
2023-02-11T05:03:13.255Z,9.37
2023-02-11T05:07:18.778Z,8.87
2023-02-11T05:11:25.710Z,9.80
2023-02-11T05:15:31.712Z,9.03
2023-02-11T05:19:37.260Z,6.97
2023-02-11T05:23:43.009Z,9.23
2023-02-11T05:27:48.588Z,10.53
2023-02-11T05:31:54.071Z,10.20
2023-02-11T05:36:02.033Z,8.43
2023-02-11T05:40:08.161Z,7.97
2023-02-11T05:44:13.709Z,8.83
2023-02-11T05:48:19.685Z,7.87
2023-02-11T05:52:25.357Z,8.63
2023-02-11T05:56:30.827Z,7.90
2023-02-11T06:00:36.708Z,9.20
2023-02-11T06:04:42.257Z,8.50
2023-02-11T06:08:47.810Z,8.77
2023-02-11T06:12:53.277Z,8.20
2023-02-11T06:21:08.707Z,7.90
2023-02-11T06:25:14.993Z,7.00
2023-02-11T06:29:20.526Z,7.40
2023-02-11T06:33:26.038Z,7.47
2023-02-11T06:37:31.527Z,7.30
2023-02-11T06:41:37.761Z,7.37
2023-02-11T06:45:43.918Z,7.60
2023-02-11T06:49:49.387Z,8.10
2023-02-11T06:53:55.309Z,7.20
2023-02-11T06:58:00.958Z,6.90
2023-02-11T07:02:07.014Z,8.10
2023-02-11T07:06:17.405Z,6.17
2023-02-11T07:10:22.866Z,5.50
2023-02-11T07:14:28.320Z,6.70
2023-02-11T07:18:34.158Z,6.87
2023-02-11T07:22:39.649Z,7.30
2023-02-11T07:26:45.259Z,5.47
2023-02-11T07:30:50.792Z,6.17
2023-02-11T07:34:56.324Z,6.73
2023-02-11T07:39:01.873Z,6.50
2023-02-11T07:43:07.380Z,6.60
2023-02-11T07:47:12.837Z,5.90
2023-02-11T07:51:24.384Z,6.57
2023-02-11T07:55:30.082Z,6.30
2023-02-11T07:59:35.660Z,5.67
2023-02-11T08:03:42.872Z,5.90
2023-02-11T08:07:53.217Z,6.00
2023-02-11T08:11:58.752Z,5.40
2023-02-11T08:16:05.716Z,7.20
2023-02-11T08:20:11.981Z,6.30
2023-02-11T08:24:17.576Z,6.40
2023-02-11T08:28:23.111Z,4.60
2023-02-11T08:32:31.783Z,5.87
2023-02-11T08:36:39.060Z,5.10
2023-02-11T08:40:44.601Z,5.50
2023-02-11T08:44:50.046Z,5.77
2023-02-11T08:48:55.784Z,6.03
2023-02-11T08:53:01.240Z,5.50
2023-02-11T08:57:06.899Z,6.37
2023-02-11T09:01:22.291Z,5.63
2023-02-11T09:05:28.269Z,5.37
2023-02-11T09:09:33.905Z,5.47
2023-02-11T09:13:42.671Z,5.40
2023-02-11T09:17:48.504Z,5.77
2023-02-11T09:21:53.971Z,5.70
2023-02-11T09:25:59.447Z,5.57
2023-02-11T09:30:05.762Z,4.93
2023-02-11T09:34:12.675Z,5.50
2023-02-11T09:38:19.246Z,5.57
2023-02-11T09:42:54.313Z,6.30
2023-02-11T09:47:15.138Z,5.73
2023-02-11T09:51:48.760Z,6.53
2023-02-11T09:56:09.930Z,6.20
2023-02-11T10:00:38.082Z,6.00
2023-02-11T10:05:02.800Z,6.57
2023-02-11T10:09:35.462Z,5.87
2023-02-11T10:13:50.126Z,4.60
2023-02-11T10:18:22.443Z,5.30
2023-02-11T10:22:39.086Z,5.40
2023-02-11T10:26:45.961Z,6.20
2023-02-11T10:31:07.528Z,6.20
2023-02-11T10:35:21.449Z,5.57
2023-02-11T10:39:28.286Z,5.33
2023-02-11T10:43:35.179Z,4.60
2023-02-11T10:47:41.617Z,3.90
2023-02-11T10:51:47.100Z,4.47
2023-02-11T10:55:57.550Z,4.83
2023-02-11T11:00:41.076Z,4.20
2023-02-11T11:04:47.945Z,4.73
2023-02-11T11:08:53.482Z,3.70
2023-02-11T11:12:59.084Z,3.90
2023-02-11T11:17:19.096Z,3.83
2023-02-11T11:21:34.594Z,3.47
2023-02-11T11:25:45.976Z,3.23
2023-02-11T11:29:56.391Z,3.30
2023-02-11T11:34:23.639Z,4.00
2023-02-11T11:38:31.772Z,3.17
2023-02-11T11:42:39.966Z,3.50
2023-02-11T11:46:51.371Z,3.13
2023-02-11T11:51:01.827Z,3.50
2023-02-11T11:55:20.122Z,3.00
2023-02-11T11:59:25.782Z,2.67
2023-02-11T12:03:43.812Z,3.00
2023-02-11T12:08:14.680Z,4.17
2023-02-11T12:13:02.700Z,3.23
2023-02-11T12:17:56.956Z,4.50
2023-02-11T12:22:21.809Z,4.00
2023-02-11T12:27:02.908Z,3.50
2023-02-11T12:31:51.805Z,3.23
2023-02-11T12:36:19.955Z,3.80
2023-02-11T12:40:44.255Z,3.17
2023-02-11T12:45:10.920Z,3.43
2023-02-11T12:49:57.765Z,2.43
2023-02-11T12:54:18.179Z,3.43
2023-02-11T12:58:42.826Z,3.23
2023-02-11T13:03:14.004Z,2.23
2023-02-11T13:07:37.051Z,4.73
2023-02-11T13:11:51.986Z,7.90
2023-02-11T13:16:37.717Z,3.60
2023-02-11T13:20:58.248Z,2.80
2023-02-11T13:25:51.507Z,2.60
2023-02-11T13:30:35.047Z,2.77
2023-02-11T13:34:43.656Z,2.87
2023-02-11T13:39:02.812Z,2.80
2023-02-11T13:43:24.392Z,2.50
2023-02-11T13:47:35.588Z,2.30
2023-02-11T13:51:43.085Z,1.90
2023-02-11T13:55:53.299Z,1.83
2023-02-11T14:00:03.154Z,2.80
2023-02-11T14:04:43.486Z,2.07
2023-02-11T14:09:10.364Z,1.80
2023-02-11T14:13:38.393Z,1.83
2023-02-11T14:17:43.881Z,1.70
2023-02-11T14:21:50.442Z,2.00
2023-02-11T14:26:21.856Z,1.90
2023-02-11T14:31:04.108Z,1.67
2023-02-11T14:35:21.566Z,1.87
2023-02-11T14:39:54.850Z,2.90
2023-02-11T14:44:05.549Z,1.60
2023-02-11T14:48:19.611Z,1.67
2023-02-11T14:52:32.306Z,1.53
2023-02-11T14:56:38.213Z,1.60
2023-02-11T15:00:54.888Z,1.10
2023-02-11T15:05:29.201Z,1.10
2023-02-11T15:09:42.367Z,1.30
2023-02-11T15:13:49.722Z,1.30
2023-02-11T15:17:59.718Z,1.13
2023-02-11T15:22:10.619Z,1.60
2023-02-11T15:26:22.184Z,1.40
2023-02-11T15:30:34.196Z,4.23
2023-02-11T15:34:40.172Z,1.60
2023-02-11T15:39:08.301Z,1.50
2023-02-11T15:43:13.979Z,6.70
2023-02-11T15:47:21.733Z,4.93
2023-02-11T15:51:39.861Z,1.40
2023-02-11T15:55:48.092Z,1.87
2023-02-11T15:59:58.622Z,1.67
2023-02-11T16:04:05.687Z,1.77
2023-02-11T16:08:32.715Z,3.40
2023-02-11T16:12:38.259Z,1.90
2023-02-11T16:16:50.283Z,2.10
2023-02-11T16:20:56.361Z,2.20
2023-02-11T16:25:02.596Z,2.00
2023-02-11T16:29:13.842Z,2.77
2023-02-11T16:33:19.875Z,2.10
2023-02-11T16:37:26.102Z,2.47
2023-02-11T16:41:31.642Z,2.73
2023-02-11T16:45:40.431Z,2.27
2023-02-11T16:49:46.035Z,2.43
2023-02-11T16:53:51.584Z,2.03
2023-02-11T16:57:57.070Z,2.80
2023-02-11T17:02:02.900Z,2.90
2023-02-11T17:06:13.586Z,2.13
2023-02-11T17:10:23.229Z,2.47
2023-02-11T17:14:28.844Z,2.70
2023-02-11T17:18:34.478Z,2.07
2023-02-11T17:22:40.504Z,3.87
2023-02-11T17:26:47.267Z,2.40
2023-02-11T17:30:52.974Z,1.93
2023-02-11T17:34:58.545Z,2.03
2023-02-11T17:39:08.027Z,2.50
2023-02-11T17:43:15.730Z,2.43
2023-02-11T17:47:21.242Z,2.10
2023-02-11T17:51:34.378Z,2.30
2023-02-11T17:55:40.486Z,2.83
2023-02-11T17:59:46.395Z,2.10
2023-02-11T18:03:51.846Z,2.87
2023-02-11T18:07:57.430Z,2.10
2023-02-11T18:12:03.068Z,2.43
2023-02-11T18:16:08.817Z,2.50
2023-02-11T18:20:14.462Z,3.07
2023-02-11T18:24:19.976Z,3.10
2023-02-11T18:28:25.835Z,2.70
2023-02-11T18:32:31.682Z,5.03
2023-02-11T18:36:37.732Z,2.93
2023-02-11T18:40:43.391Z,2.47
2023-02-11T18:44:48.969Z,3.53
2023-02-11T18:48:56.230Z,3.67
2023-02-11T18:53:02.070Z,2.93
2023-02-11T18:57:08.052Z,3.10
2023-02-11T19:01:19.534Z,2.70
2023-02-11T19:05:28.692Z,3.00
2023-02-11T19:09:34.277Z,2.90
2023-02-11T19:13:40.080Z,3.63
2023-02-11T19:17:45.642Z,3.50
2023-02-11T19:21:51.190Z,3.07
2023-02-11T19:25:56.680Z,3.40
2023-02-11T19:30:02.382Z,3.17
2023-02-11T19:34:08.299Z,3.57
2023-02-11T19:38:15.767Z,2.83
2023-02-11T19:42:21.365Z,2.80
2023-02-11T19:46:31.569Z,3.00
2023-02-11T19:50:37.107Z,2.40
2023-02-11T19:54:42.570Z,2.83
2023-02-11T19:58:48.312Z,2.57
2023-02-11T20:02:54.033Z,3.43
2023-02-11T20:06:59.804Z,2.97
2023-02-11T20:11:11.127Z,3.10
2023-02-11T20:15:16.793Z,2.63
2023-02-11T20:19:23.031Z,3.10
2023-02-11T20:23:29.764Z,3.40
2023-02-11T20:27:35.462Z,3.20
2023-02-11T20:31:41.615Z,3.67
2023-02-11T20:35:55.969Z,3.80
2023-02-11T20:40:01.571Z,3.83
2023-02-11T20:44:09.899Z,3.83
2023-02-11T20:48:15.476Z,3.50
2023-02-11T20:52:21.762Z,3.50
2023-02-11T20:56:31.314Z,3.23
2023-02-11T21:00:37.302Z,3.93
2023-02-11T21:04:43.185Z,5.77
2023-02-11T21:08:48.822Z,9.60
2023-02-11T21:12:54.360Z,3.67
2023-02-11T21:16:59.993Z,3.70
2023-02-11T21:21:07.072Z,3.30
2023-02-11T21:25:12.904Z,3.50
2023-02-11T21:29:18.414Z,3.83
2023-02-11T21:33:27.396Z,3.20
2023-02-11T21:37:33.102Z,3.57
2023-02-11T21:41:39.263Z,2.73
2023-02-11T21:45:51.182Z,2.83
2023-02-11T21:49:56.666Z,3.30
2023-02-11T21:54:03.902Z,4.20
2023-02-11T21:58:11.169Z,3.20
2023-02-11T22:02:16.715Z,3.93
2023-02-11T22:06:30.978Z,3.90
2023-02-11T22:10:36.628Z,3.47
2023-02-11T22:14:42.269Z,3.77
2023-02-11T22:18:48.054Z,4.20
2023-02-11T22:22:53.650Z,3.43
2023-02-11T22:26:59.149Z,4.20
2023-02-11T22:31:05.366Z,4.03
2023-02-11T22:35:10.858Z,4.30
2023-02-11T22:39:17.815Z,4.00
2023-02-11T22:43:24.297Z,4.00
2023-02-11T22:47:29.986Z,4.60
2023-02-11T22:51:35.589Z,4.73
2023-02-11T22:55:41.249Z,4.00
2023-02-11T22:59:48.647Z,4.67
2023-02-11T23:03:54.186Z,4.93
2023-02-11T23:07:59.763Z,4.00
2023-02-11T23:12:05.812Z,4.40
2023-02-11T23:16:21.657Z,5.33
2023-02-11T23:20:27.304Z,4.50
2023-02-11T23:24:32.953Z,4.90
2023-02-11T23:28:39.698Z,4.87
2023-02-11T23:32:45.509Z,4.87
2023-02-11T23:36:52.472Z,4.57
2023-02-11T23:40:57.949Z,4.67
2023-02-11T23:45:03.652Z,5.00
2023-02-11T23:49:09.240Z,4.77
2023-02-11T23:53:14.977Z,4.77
2023-02-11T23:57:20.611Z,5.47
